createdAt,value
2023-02-26T00:01:45.998Z,8.88
2023-02-26T00:04:14.055Z,8.98
2023-02-26T00:06:53.685Z,9.00
2023-02-26T00:09:25.499Z,8.10
2023-02-26T00:11:54.668Z,7.25
2023-02-26T00:14:26.112Z,7.32
2023-02-26T00:17:10.498Z,7.78
2023-02-26T00:19:39.250Z,7.50
2023-02-26T00:22:07.779Z,7.45
2023-02-26T00:24:35.644Z,7.30
2023-02-26T00:27:04.016Z,7.18
2023-02-26T00:29:32.296Z,7.13
2023-02-26T00:32:01.118Z,6.97
2023-02-26T00:34:29.364Z,6.60
2023-02-26T00:37:16.124Z,7.30
2023-02-26T00:39:47.120Z,6.63
2023-02-26T00:42:15.898Z,7.28
2023-02-26T00:44:44.235Z,6.72
2023-02-26T00:47:50.882Z,7.07
2023-02-26T00:50:22.840Z,6.45
2023-02-26T00:53:09.097Z,7.05
2023-02-26T00:55:37.128Z,6.57
2023-02-26T00:58:07.485Z,6.15
2023-02-26T01:00:36.068Z,6.30
2023-02-26T01:03:05.346Z,7.25
2023-02-26T01:05:33.895Z,6.88
2023-02-26T01:08:32.184Z,6.90
2023-02-26T01:11:00.578Z,6.57
2023-02-26T01:13:29.378Z,7.07
2023-02-26T01:16:05.941Z,6.85
2023-02-26T01:18:44.570Z,7.00
2023-02-26T01:21:20.378Z,7.03
2023-02-26T01:23:51.928Z,6.70
2023-02-26T01:26:28.081Z,7.35
2023-02-26T01:28:57.264Z,7.05
2023-02-26T01:31:31.531Z,6.70
2023-02-26T01:34:09.617Z,6.82
2023-02-26T01:36:44.168Z,6.50
2023-02-26T01:39:26.592Z,6.30
2023-02-26T01:42:06.489Z,6.55
2023-02-26T01:44:57.577Z,6.38
2023-02-26T01:47:45.854Z,6.03
2023-02-26T01:50:16.475Z,6.43
2023-02-26T01:52:51.050Z,5.80
2023-02-26T01:55:26.092Z,6.60
2023-02-26T01:57:57.652Z,6.72
2023-02-26T02:00:31.976Z,6.50
2023-02-26T02:03:01.159Z,6.53
2023-02-26T02:05:56.104Z,6.05
2023-02-26T02:08:25.137Z,6.28
2023-02-26T02:10:54.784Z,7.03
2023-02-26T02:13:25.543Z,6.57
2023-02-26T02:16:09.162Z,7.07
2023-02-26T02:19:14.127Z,6.68
2023-02-26T02:21:51.518Z,6.65
2023-02-26T02:25:09.924Z,6.72
2023-02-26T02:28:15.568Z,7.00
2023-02-26T02:31:18.437Z,6.05
2023-02-26T02:34:04.729Z,7.25
2023-02-26T02:36:55.329Z,6.40
2023-02-26T02:39:28.513Z,6.95
2023-02-26T02:42:02.135Z,6.45
2023-02-26T02:44:34.813Z,6.68
2023-02-26T02:47:05.376Z,6.50
2023-02-26T02:50:03.750Z,6.45
2023-02-26T02:52:57.481Z,6.22
2023-02-26T02:55:31.255Z,6.93
2023-02-26T02:58:01.595Z,6.90
2023-02-26T03:00:33.371Z,6.57
2023-02-26T03:03:14.525Z,6.18
2023-02-26T03:05:43.295Z,6.97
2023-02-26T03:08:15.698Z,6.28
2023-02-26T03:10:48.285Z,5.65
2023-02-26T03:13:23.436Z,6.97
2023-02-26T03:16:02.642Z,6.97
2023-02-26T03:18:33.505Z,7.30
2023-02-26T03:21:12.447Z,9.32
2023-02-26T03:23:50.309Z,9.15
2023-02-26T03:26:32.208Z,9.40
2023-02-26T03:29:10.079Z,9.13
2023-02-26T03:32:01.016Z,8.88
2023-02-26T03:34:53.578Z,8.75
2023-02-26T03:37:44.448Z,8.65
2023-02-26T03:40:25.985Z,8.80
2023-02-26T03:43:00.911Z,8.55
2023-02-26T03:45:34.457Z,8.15
2023-02-26T03:48:08.077Z,9.15
2023-02-26T03:50:46.508Z,9.20
2023-02-26T03:54:00.432Z,9.10
2023-02-26T03:56:41.201Z,8.73
2023-02-26T03:59:39.333Z,8.25
2023-02-26T04:05:25.825Z,8.63
2023-02-26T04:07:59.574Z,9.88
2023-02-26T04:10:54.833Z,8.52
2023-02-26T04:13:23.341Z,9.70
2023-02-26T04:15:52.501Z,9.75
2023-02-26T04:18:21.787Z,9.43
2023-02-26T04:20:51.876Z,9.23
2023-02-26T04:23:19.891Z,9.02
2023-02-26T04:25:48.065Z,8.60
2023-02-26T04:28:19.042Z,8.68
2023-02-26T04:30:48.535Z,9.32
2023-02-26T04:33:17.379Z,8.95
2023-02-26T04:35:46.090Z,10.20
2023-02-26T04:38:13.924Z,10.10
2023-02-26T04:40:42.632Z,9.88
2023-02-26T04:43:15.934Z,9.57
2023-02-26T04:45:53.619Z,9.95
2023-02-26T04:48:21.881Z,10.48
2023-02-26T04:50:50.504Z,10.05
2023-02-26T04:53:18.621Z,10.50
2023-02-26T04:55:51.879Z,10.23
2023-02-26T04:58:20.545Z,11.60
2023-02-26T05:00:50.631Z,11.02
2023-02-26T05:03:18.990Z,11.77
2023-02-26T05:05:50.068Z,12.20
2023-02-26T05:08:18.222Z,12.40
2023-02-26T05:10:50.123Z,12.65
2023-02-26T05:13:19.322Z,13.57
2023-02-26T05:15:48.099Z,13.63
2023-02-26T05:18:16.055Z,13.70
2023-02-26T05:20:45.717Z,13.77
2023-02-26T05:23:14.198Z,11.70
2023-02-26T05:25:42.430Z,12.00
2023-02-26T05:28:10.290Z,12.45
2023-02-26T05:30:38.586Z,11.95
2023-02-26T05:33:10.211Z,12.23
2023-02-26T05:35:39.178Z,11.88
2023-02-26T05:38:07.350Z,12.50
2023-02-26T05:40:35.672Z,12.15
2023-02-26T05:43:04.042Z,12.95
2023-02-26T05:45:32.228Z,12.90
2023-02-26T05:48:00.110Z,13.07
2023-02-26T05:50:28.574Z,12.60
2023-02-26T05:52:56.802Z,12.18
2023-02-26T05:55:25.464Z,13.45
2023-02-26T05:57:53.351Z,12.90
2023-02-26T06:00:21.663Z,11.98
2023-02-26T06:02:49.770Z,12.55
2023-02-26T06:05:18.977Z,11.95
2023-02-26T06:07:47.622Z,12.30
2023-02-26T06:10:15.861Z,11.77
2023-02-26T06:12:43.862Z,12.63
2023-02-26T06:15:12.956Z,12.15
2023-02-26T06:17:41.219Z,13.35
2023-02-26T06:20:10.712Z,12.73
2023-02-26T06:22:38.773Z,13.15
2023-02-26T06:25:07.448Z,13.73
2023-02-26T06:27:35.349Z,13.40
2023-02-26T06:30:05.329Z,13.10
2023-02-26T06:32:34.243Z,13.98
2023-02-26T06:35:02.595Z,14.93
2023-02-26T06:37:31.562Z,14.65
2023-02-26T06:39:59.754Z,14.32
2023-02-26T06:42:27.871Z,14.27
2023-02-26T06:44:57.521Z,15.50
2023-02-26T06:47:25.382Z,14.80
2023-02-26T06:49:53.783Z,15.52
2023-02-26T06:52:21.697Z,14.77
2023-02-26T06:54:49.986Z,14.63
2023-02-26T06:57:18.010Z,15.18
2023-02-26T06:59:46.189Z,15.20
2023-02-26T07:02:19.463Z,14.52
2023-02-26T07:04:48.014Z,13.43
2023-02-26T07:07:16.342Z,13.68
2023-02-26T07:09:46.045Z,14.10
2023-02-26T07:12:14.408Z,14.18
2023-02-26T07:14:46.591Z,14.55
2023-02-26T07:17:20.706Z,15.77
2023-02-26T07:19:53.189Z,14.95
2023-02-26T07:22:22.243Z,14.60
2023-02-26T07:24:51.571Z,14.18
2023-02-26T07:27:19.468Z,13.50
2023-02-26T07:29:47.731Z,14.55
2023-02-26T07:32:15.584Z,14.50
2023-02-26T07:34:44.833Z,14.38
2023-02-26T07:37:13.218Z,14.52
2023-02-26T07:39:41.763Z,13.43
2023-02-26T07:42:09.953Z,13.27
2023-02-26T07:44:39.735Z,13.82
2023-02-26T07:47:07.585Z,13.20
2023-02-26T07:49:35.954Z,13.30
2023-02-26T07:52:04.214Z,13.90
2023-02-26T07:54:32.533Z,12.32
2023-02-26T07:57:00.597Z,12.30
2023-02-26T07:59:28.779Z,12.20
2023-02-26T08:01:57.158Z,10.85
2023-02-26T08:04:25.646Z,9.77
2023-02-26T08:06:57.572Z,9.93
2023-02-26T08:09:26.959Z,9.38
2023-02-26T08:11:55.700Z,10.02
2023-02-26T08:14:23.963Z,10.05
2023-02-26T08:16:53.695Z,10.45
2023-02-26T08:19:22.046Z,10.23
2023-02-26T08:21:50.822Z,8.98
2023-02-26T08:24:19.255Z,7.22
2023-02-26T08:26:47.426Z,8.60
2023-02-26T08:29:15.744Z,9.02
2023-02-26T08:31:43.996Z,7.63
2023-02-26T08:34:12.514Z,6.28
2023-02-26T08:36:40.464Z,6.45
2023-02-26T08:39:08.887Z,6.80
2023-02-26T08:41:36.951Z,6.95
2023-02-26T08:44:05.577Z,6.15
2023-02-26T08:46:33.529Z,6.22
2023-02-26T08:49:02.476Z,6.20
2023-02-26T08:51:30.389Z,6.00
2023-02-26T08:53:58.829Z,5.57
2023-02-26T08:56:26.909Z,6.32
2023-02-26T08:58:55.358Z,5.53
2023-02-26T09:01:23.546Z,5.55
2023-02-26T09:03:52.182Z,6.07
2023-02-26T09:06:20.012Z,5.57
2023-02-26T09:08:49.717Z,5.63
2023-02-26T09:11:17.619Z,6.10
2023-02-26T09:13:45.993Z,6.85
2023-02-26T09:16:14.033Z,5.93
2023-02-26T09:18:42.520Z,6.82
2023-02-26T09:21:11.082Z,7.28
2023-02-26T09:23:39.469Z,7.10
2023-02-26T09:26:09.284Z,7.25
2023-02-26T09:28:37.565Z,6.95
2023-02-26T09:31:07.696Z,6.70
2023-02-26T09:33:37.179Z,6.80
2023-02-26T09:36:05.512Z,6.43
2023-02-26T09:38:36.215Z,7.18
2023-02-26T09:41:10.584Z,7.10
2023-02-26T09:44:00.684Z,7.45
2023-02-26T09:46:37.932Z,6.78
2023-02-26T09:49:40.025Z,7.68
2023-02-26T09:52:29.262Z,7.57
2023-02-26T09:55:05.595Z,7.43
2023-02-26T09:57:36.432Z,7.32
2023-02-26T10:00:19.355Z,7.20
2023-02-26T10:03:04.020Z,7.13
2023-02-26T10:05:38.999Z,7.15
2023-02-26T10:08:17.230Z,7.75
2023-02-26T10:11:06.778Z,7.50
2023-02-26T10:13:57.152Z,7.68
2023-02-26T10:16:33.661Z,7.20
2023-02-26T10:19:17.416Z,7.55
2023-02-26T10:22:01.103Z,7.28
2023-02-26T10:24:43.762Z,6.97
2023-02-26T10:27:18.372Z,7.80
2023-02-26T10:29:52.102Z,7.32
2023-02-26T10:32:31.280Z,7.97
2023-02-26T10:35:03.690Z,8.95
2023-02-26T10:37:57.874Z,7.72
2023-02-26T10:40:53.978Z,8.40
2023-02-26T10:43:27.983Z,7.17
2023-02-26T10:46:19.114Z,7.28
2023-02-26T10:49:06.430Z,7.72
2023-02-26T10:51:37.640Z,7.35
2023-02-26T10:54:22.011Z,7.90
2023-02-26T10:56:50.144Z,7.57
2023-02-26T10:59:18.486Z,8.15
2023-02-26T11:01:48.981Z,7.38
2023-02-26T11:04:23.616Z,6.95
2023-02-26T11:06:59.807Z,7.35
2023-02-26T11:09:39.068Z,7.05
2023-02-26T11:12:14.687Z,7.20
2023-02-26T11:14:45.001Z,8.13
2023-02-26T11:17:23.429Z,6.85
2023-02-26T11:20:19.600Z,7.00
2023-02-26T11:22:58.176Z,7.22
2023-02-26T11:25:31.083Z,7.88
2023-02-26T11:28:03.264Z,7.75
2023-02-26T11:30:37.717Z,6.95
2023-02-26T11:33:18.758Z,8.15
2023-02-26T11:35:47.670Z,7.70
2023-02-26T11:38:20.729Z,7.70
2023-02-26T11:40:54.512Z,7.35
2023-02-26T11:43:25.866Z,7.22
2023-02-26T11:46:02.119Z,8.05
2023-02-26T11:48:41.255Z,7.72
2023-02-26T11:51:16.614Z,7.53
2023-02-26T11:53:51.581Z,8.40
2023-02-26T11:56:37.027Z,7.90
2023-02-26T11:59:23.281Z,7.90
2023-02-26T12:04:27.882Z,7.80
2023-02-26T12:06:57.657Z,7.68
2023-02-26T12:09:27.038Z,7.68
2023-02-26T12:12:20.027Z,7.85
2023-02-26T12:15:06.389Z,7.32
2023-02-26T12:17:38.856Z,7.53
2023-02-26T12:20:26.504Z,7.57
2023-02-26T12:23:22.639Z,7.28
2023-02-26T12:26:12.382Z,7.68
2023-02-26T12:29:08.075Z,7.82
2023-02-26T12:32:18.192Z,7.57
2023-02-26T12:34:55.661Z,12.38
2023-02-26T12:37:50.817Z,10.45
2023-02-26T12:40:37.796Z,7.90
2023-02-26T12:43:40.892Z,7.78
2023-02-26T12:46:32.187Z,7.22
2023-02-26T12:49:29.552Z,7.53
2023-02-26T12:52:33.394Z,7.68
2023-02-26T12:55:05.282Z,7.97
2023-02-26T12:58:07.094Z,8.05
2023-02-26T13:00:48.185Z,7.53
2023-02-26T13:03:52.178Z,8.15
2023-02-26T13:06:47.300Z,7.20
2023-02-26T13:09:34.377Z,7.20
2023-02-26T13:12:03.357Z,7.47
2023-02-26T13:14:51.754Z,7.28
2023-02-26T13:17:35.516Z,7.63
2023-02-26T13:20:31.295Z,7.45
2023-02-26T13:23:24.812Z,8.15
2023-02-26T13:26:05.826Z,7.78
2023-02-26T13:28:51.956Z,7.60
2023-02-26T13:31:51.401Z,7.35
2023-02-26T13:35:02.192Z,7.70
2023-02-26T13:37:40.528Z,7.50
2023-02-26T13:40:48.812Z,6.93
2023-02-26T13:43:29.830Z,7.57
2023-02-26T13:46:16.022Z,6.57
2023-02-26T13:49:11.021Z,6.40
2023-02-26T13:51:46.340Z,6.70
2023-02-26T13:54:15.535Z,6.78
2023-02-26T13:57:10.856Z,6.80
2023-02-26T13:59:42.438Z,6.50
2023-02-26T14:02:19.584Z,6.53
2023-02-26T14:04:58.772Z,6.32
2023-02-26T14:08:08.242Z,7.00
2023-02-26T14:10:54.128Z,6.32
2023-02-26T14:13:36.489Z,6.50
2023-02-26T14:16:29.197Z,6.03
2023-02-26T14:19:32.696Z,6.35
2023-02-26T14:22:22.660Z,6.10
2023-02-26T14:24:59.065Z,5.97
2023-02-26T14:27:33.286Z,6.55
2023-02-26T14:30:10.481Z,6.57
2023-02-26T14:32:56.665Z,6.85
2023-02-26T14:35:35.532Z,6.07
2023-02-26T14:38:12.893Z,6.93
2023-02-26T14:40:52.074Z,8.82
2023-02-26T14:43:35.207Z,9.95
2023-02-26T14:46:06.364Z,8.60
2023-02-26T14:48:36.278Z,8.02
2023-02-26T14:51:35.512Z,8.57
2023-02-26T14:54:34.934Z,11.25
2023-02-26T14:57:27.544Z,16.05
2023-02-26T15:00:14.430Z,9.05
2023-02-26T15:05:38.014Z,7.75
2023-02-26T15:08:15.045Z,9.25
2023-02-26T15:11:33.818Z,9.25
2023-02-26T15:16:49.481Z,8.30
2023-02-26T15:19:51.347Z,8.65
2023-02-26T15:22:26.373Z,9.07
2023-02-26T15:24:54.341Z,9.00
2023-02-26T15:27:23.253Z,9.23
2023-02-26T15:29:53.315Z,9.20
2023-02-26T15:32:26.574Z,11.57
2023-02-26T15:35:16.275Z,10.85
2023-02-26T15:37:54.113Z,9.65
2023-02-26T15:40:22.250Z,8.80
2023-02-26T15:42:55.184Z,8.38
2023-02-26T15:45:36.318Z,12.20
2023-02-26T15:48:08.797Z,11.10
2023-02-26T15:50:41.990Z,11.40
2023-02-26T15:53:42.966Z,10.98
2023-02-26T15:56:19.994Z,10.70
2023-02-26T15:59:02.178Z,10.95
2023-02-26T16:01:31.746Z,10.73
2023-02-26T16:04:07.677Z,11.73
2023-02-26T16:06:38.466Z,14.02
2023-02-26T16:09:15.451Z,13.07
2023-02-26T16:11:47.425Z,10.90
2023-02-26T16:14:33.634Z,11.00
2023-02-26T16:17:02.900Z,10.23
2023-02-26T16:19:41.907Z,9.30
2023-02-26T16:22:33.989Z,10.18
2023-02-26T16:25:36.075Z,9.30
2023-02-26T16:28:28.595Z,10.65
2023-02-26T16:30:59.769Z,10.02
2023-02-26T16:33:34.050Z,9.60
2023-02-26T16:36:16.358Z,9.43
2023-02-26T16:38:48.313Z,9.98
2023-02-26T16:41:23.036Z,9.05
2023-02-26T16:43:54.720Z,9.40
2023-02-26T16:46:43.968Z,8.82
2023-02-26T16:49:26.709Z,9.05
2023-02-26T16:51:56.504Z,10.25
2023-02-26T16:54:28.692Z,9.80
2023-02-26T16:57:04.796Z,8.90
2023-02-26T16:59:38.732Z,9.82
2023-02-26T17:02:30.247Z,8.95
2023-02-26T17:05:10.784Z,9.45
2023-02-26T17:07:49.105Z,8.25
2023-02-26T17:10:32.274Z,7.72
2023-02-26T17:13:14.147Z,8.48
2023-02-26T17:15:43.102Z,8.20
2023-02-26T17:18:11.569Z,7.18
2023-02-26T17:20:40.900Z,7.28
2023-02-26T17:23:09.836Z,7.75
2023-02-26T17:25:47.665Z,7.20
2023-02-26T17:28:22.855Z,7.30
2023-02-26T17:30:52.882Z,6.97
2023-02-26T17:33:22.123Z,6.82
2023-02-26T17:35:50.637Z,7.57
2023-02-26T17:38:18.995Z,8.18
2023-02-26T17:40:54.516Z,8.32
2023-02-26T17:43:23.913Z,7.13
2023-02-26T17:45:52.269Z,7.55
2023-02-26T17:48:21.224Z,7.45
2023-02-26T17:50:52.650Z,7.47
2023-02-26T17:53:23.094Z,7.50
2023-02-26T17:55:53.689Z,8.27
2023-02-26T17:58:29.949Z,9.00
2023-02-26T18:00:58.074Z,8.38
2023-02-26T18:03:26.871Z,8.45
2023-02-26T18:05:56.762Z,7.75
2023-02-26T18:08:31.489Z,8.02
2023-02-26T18:11:00.419Z,8.07
2023-02-26T18:13:30.389Z,8.05
2023-02-26T18:15:59.316Z,8.73
2023-02-26T18:18:27.970Z,8.55
2023-02-26T18:20:56.569Z,8.20
2023-02-26T18:23:26.205Z,8.63
2023-02-26T18:25:55.386Z,8.57
2023-02-26T18:28:26.569Z,8.38
2023-02-26T18:30:56.931Z,8.02
2023-02-26T18:33:26.446Z,8.10
2023-02-26T18:35:58.497Z,7.47
2023-02-26T18:38:28.778Z,7.50
2023-02-26T18:40:59.413Z,8.27
2023-02-26T18:43:30.478Z,8.60
2023-02-26T18:46:01.749Z,7.95
2023-02-26T18:48:30.612Z,9.93
2023-02-26T18:50:59.993Z,11.57
2023-02-26T18:53:28.089Z,9.50
2023-02-26T18:55:58.485Z,9.80
2023-02-26T18:58:26.621Z,8.75
2023-02-26T19:00:54.926Z,8.20
2023-02-26T19:03:23.610Z,7.60
2023-02-26T19:06:04.158Z,7.68
2023-02-26T19:08:33.677Z,7.80
2023-02-26T19:11:02.280Z,7.50
2023-02-26T19:13:30.374Z,8.15
2023-02-26T19:15:58.752Z,9.68
2023-02-26T19:18:27.151Z,8.70
2023-02-26T19:20:55.446Z,9.45
2023-02-26T19:23:24.742Z,11.48
2023-02-26T19:25:53.338Z,11.27
2023-02-26T19:28:21.330Z,11.65
2023-02-26T19:30:49.184Z,11.82
2023-02-26T19:33:20.498Z,10.95
2023-02-26T19:35:48.708Z,10.27
2023-02-26T19:38:18.212Z,8.73
2023-02-26T19:40:46.246Z,7.30
2023-02-26T19:43:14.480Z,7.72
2023-02-26T19:45:42.566Z,9.00
2023-02-26T19:48:11.322Z,8.90
2023-02-26T19:50:39.179Z,8.50
2023-02-26T19:53:10.204Z,8.88
2023-02-26T19:55:38.351Z,8.20
2023-02-26T19:58:06.620Z,7.50
2023-02-26T20:00:34.616Z,7.55
2023-02-26T20:03:03.230Z,8.20
2023-02-26T20:05:31.132Z,8.18
2023-02-26T20:07:59.564Z,8.48
2023-02-26T20:10:29.328Z,8.55
2023-02-26T20:12:58.712Z,8.48
2023-02-26T20:15:27.615Z,8.70
2023-02-26T20:17:56.015Z,8.23
2023-02-26T20:20:24.338Z,8.30
2023-02-26T20:22:53.901Z,8.70
2023-02-26T20:25:21.879Z,10.70
2023-02-26T20:27:50.385Z,10.52
2023-02-26T20:30:19.465Z,9.52
2023-02-26T20:32:48.171Z,10.57
2023-02-26T20:35:16.144Z,10.43
2023-02-26T20:37:44.865Z,10.07
2023-02-26T20:40:13.389Z,9.32
2023-02-26T20:42:41.713Z,9.73
2023-02-26T20:45:10.200Z,9.63
2023-02-26T20:47:38.520Z,9.77
2023-02-26T20:50:07.102Z,8.43
2023-02-26T20:52:36.138Z,9.27
2023-02-26T20:55:04.489Z,9.32
2023-02-26T20:57:32.924Z,8.82
2023-02-26T21:00:05.653Z,8.50
2023-02-26T21:02:35.078Z,9.27
2023-02-26T21:05:05.976Z,8.68
2023-02-26T21:07:34.946Z,9.15
2023-02-26T21:10:03.390Z,9.25
2023-02-26T21:12:32.766Z,8.60
2023-02-26T21:15:00.732Z,9.20
2023-02-26T21:17:33.109Z,9.48
2023-02-26T21:20:01.044Z,9.43
2023-02-26T21:22:29.860Z,9.95
2023-02-26T21:24:58.261Z,8.95
2023-02-26T21:27:27.299Z,8.90
2023-02-26T21:29:55.302Z,9.98
2023-02-26T21:32:23.911Z,9.65
2023-02-26T21:34:51.790Z,9.35
2023-02-26T21:37:20.073Z,9.98
2023-02-26T21:39:48.648Z,10.38
2023-02-26T21:42:17.023Z,10.20
2023-02-26T21:44:45.177Z,10.88
2023-02-26T21:47:13.373Z,10.68
2023-02-26T21:49:41.262Z,11.82
2023-02-26T21:52:09.624Z,11.13
2023-02-26T21:54:37.487Z,11.90
2023-02-26T21:57:05.807Z,11.70
2023-02-26T21:59:34.298Z,11.98
2023-02-26T22:02:02.961Z,10.43
2023-02-26T22:04:31.407Z,10.85
2023-02-26T22:06:59.729Z,10.30
2023-02-26T22:09:27.847Z,10.15
2023-02-26T22:11:56.438Z,10.27
2023-02-26T22:14:24.483Z,9.73
2023-02-26T22:16:52.949Z,10.27
2023-02-26T22:19:20.952Z,9.52
2023-02-26T22:21:49.134Z,10.15
2023-02-26T22:24:18.636Z,10.52
2023-02-26T22:26:49.199Z,10.90
2023-02-26T22:29:19.297Z,11.32
2023-02-26T22:31:48.100Z,10.90
2023-02-26T22:34:17.797Z,11.18
2023-02-26T22:36:46.564Z,10.05
2023-02-26T22:39:15.104Z,10.43
2023-02-26T22:41:43.394Z,10.82
2023-02-26T22:44:12.580Z,11.07
2023-02-26T22:46:41.131Z,11.32
2023-02-26T22:49:09.644Z,11.23
2023-02-26T22:51:37.963Z,11.07
2023-02-26T22:54:06.077Z,11.73
2023-02-26T22:56:34.429Z,11.25
2023-02-26T22:59:02.260Z,11.88
2023-02-26T23:01:30.748Z,11.38
2023-02-26T23:03:59.629Z,11.00
2023-02-26T23:06:27.887Z,10.30
2023-02-26T23:08:55.937Z,11.70
2023-02-26T23:11:24.240Z,11.20
2023-02-26T23:13:53.081Z,11.48
2023-02-26T23:16:22.855Z,10.07
2023-02-26T23:18:51.528Z,11.18
2023-02-26T23:21:20.189Z,11.25
2023-02-26T23:23:49.192Z,11.27
2023-02-26T23:26:18.622Z,11.38
2023-02-26T23:28:46.626Z,11.75
2023-02-26T23:31:15.194Z,11.32
2023-02-26T23:33:43.096Z,12.00
2023-02-26T23:36:11.430Z,11.10
2023-02-26T23:38:40.281Z,10.98
2023-02-26T23:41:08.518Z,11.15
2023-02-26T23:43:36.628Z,11.60
2023-02-26T23:46:05.111Z,10.57
2023-02-26T23:48:32.962Z,10.70
2023-02-26T23:51:01.289Z,11.00
2023-02-26T23:53:29.993Z,10.82
2023-02-26T23:55:59.173Z,11.35
2023-02-26T23:58:28.751Z,10.80
